createdAt,value
2023-03-15T00:02:36.696Z,99116.66
2023-03-15T00:05:43.593Z,99109.63
2023-03-15T00:08:47.913Z,99116.66
2023-03-15T00:11:56.837Z,99112.75
2023-03-15T00:14:59.441Z,99089.31
2023-03-15T00:18:03.390Z,99103.38
2023-03-15T00:21:06.100Z,99113.56
2023-03-15T00:24:12.541Z,99103.41
2023-03-15T00:27:15.179Z,99107.69
2023-03-15T00:30:18.732Z,99103.41
2023-03-15T00:33:21.675Z,99109.66
2023-03-15T00:36:25.473Z,99142.06
2023-03-15T00:39:28.277Z,99116.69
2023-03-15T00:42:31.424Z,99139.72
2023-03-15T00:45:34.025Z,99143.19
2023-03-15T00:48:37.244Z,99136.19
2023-03-15T00:51:39.847Z,99144.38
2023-03-15T00:54:43.648Z,99142.41
2023-03-15T00:57:47.580Z,99137.69
2023-03-15T01:00:51.994Z,99148.25
2023-03-15T01:03:54.873Z,99140.81
2023-03-15T01:07:00.662Z,99125.16
2023-03-15T01:10:05.750Z,99114.53
2023-03-15T01:13:08.848Z,99123.41
2023-03-15T01:16:13.649Z,99123.78
2023-03-15T01:19:18.381Z,99119.72
2023-03-15T01:22:21.721Z,99130.31
2023-03-15T01:25:24.742Z,99130.38
2023-03-15T01:28:27.838Z,99136.66
2023-03-15T01:31:32.850Z,99139.75
2023-03-15T01:34:35.871Z,99126.53
2023-03-15T01:37:38.803Z,99136.28
2023-03-15T01:40:45.910Z,99138.25
2023-03-15T01:43:49.851Z,99141.03
2023-03-15T01:46:52.769Z,99154.37
2023-03-15T01:50:03.776Z,99146.56
2023-03-15T01:53:06.639Z,99145.38
2023-03-15T01:56:10.815Z,99121.22
2023-03-15T01:59:20.059Z,99146.63
2023-03-15T02:02:25.249Z,99145.47
2023-03-15T02:05:33.471Z,99130.22
2023-03-15T02:08:42.732Z,99143.91
2023-03-15T02:11:45.975Z,99135.34
2023-03-15T02:14:50.795Z,99146.66
2023-03-15T02:17:54.131Z,99146.66
2023-03-15T02:21:15.029Z,99143.12
2023-03-15T02:24:53.565Z,99146.63
2023-03-15T02:28:02.130Z,99146.25
2023-03-15T02:31:07.389Z,99145.09
2023-03-15T02:34:10.389Z,99153.72
2023-03-15T02:37:12.970Z,99124.47
2023-03-15T02:40:22.004Z,99157.22
2023-03-15T02:43:30.266Z,99157.22
2023-03-15T02:46:34.229Z,99142.38
2023-03-15T02:49:43.100Z,99141.63
2023-03-15T02:52:46.503Z,99123.25
2023-03-15T02:55:49.142Z,99135.41
2023-03-15T02:58:52.447Z,99143.97
2023-03-15T03:01:55.546Z,99120.56
2023-03-15T03:04:58.500Z,99116.66
2023-03-15T03:08:02.841Z,99117.44
2023-03-15T03:11:07.565Z,99095.56
2023-03-15T03:14:14.226Z,99083.06
2023-03-15T03:17:17.374Z,99115.47
2023-03-15T03:20:20.407Z,99115.84
2023-03-15T03:23:25.972Z,99119.78
2023-03-15T03:26:28.577Z,99108.47
2023-03-15T03:29:31.770Z,99122.94
2023-03-15T03:32:35.708Z,99117.84
2023-03-15T03:35:38.718Z,99122.91
2023-03-15T03:38:43.394Z,99133.06
2023-03-15T03:41:46.646Z,99126.84
2023-03-15T03:44:50.455Z,99125.25
2023-03-15T03:47:53.859Z,99140.88
2023-03-15T03:50:57.946Z,99126.41
2023-03-15T03:54:01.629Z,99121.34
2023-03-15T03:57:04.820Z,99123.72
2023-03-15T04:00:11.913Z,99114.34
2023-03-15T04:03:18.623Z,99135.44
2023-03-15T04:06:23.293Z,99138.16
2023-03-15T04:09:26.258Z,99133.84
2023-03-15T04:12:29.886Z,99132.28
2023-03-15T04:15:32.577Z,99128.38
2023-03-15T04:18:35.795Z,99131.50
2023-03-15T04:21:38.885Z,99122.91
2023-03-15T04:24:43.552Z,99118.63
2023-03-15T04:27:46.689Z,99133.03
2023-03-15T04:30:51.355Z,99115.09
2023-03-15T04:33:55.050Z,99120.56
2023-03-15T04:37:01.064Z,99108.47
2023-03-15T04:40:07.087Z,99129.16
2023-03-15T04:43:11.692Z,99133.81
2023-03-15T04:46:14.837Z,99129.12
2023-03-15T04:49:18.948Z,99135.38
2023-03-15T04:52:22.021Z,99105.66
2023-03-15T04:55:25.310Z,99140.78
2023-03-15T04:58:31.703Z,99134.53
2023-03-15T05:01:35.035Z,99097.41
2023-03-15T05:04:39.044Z,99107.97
2023-03-15T05:07:44.240Z,99141.97
2023-03-15T05:10:47.501Z,99151.72
2023-03-15T05:13:50.790Z,99125.91
2023-03-15T05:16:56.060Z,99162.19
2023-03-15T05:20:01.458Z,99158.75
2023-03-15T05:23:05.157Z,99169.22
2023-03-15T05:26:08.377Z,99164.53
2023-03-15T05:29:14.686Z,99168.75
2023-03-15T05:32:18.231Z,99166.44
2023-03-15T05:35:22.336Z,99153.06
2023-03-15T05:38:27.046Z,99174.09
2023-03-15T05:41:30.306Z,99176.91
2023-03-15T05:44:33.610Z,99167.81
2023-03-15T05:47:36.588Z,99169.41
2023-03-15T05:50:44.438Z,99177.53
2023-03-15T05:53:47.415Z,99183.00
2023-03-15T05:56:51.366Z,99160.75
2023-03-15T05:59:55.155Z,99173.66
2023-03-15T06:02:58.362Z,99180.22
2023-03-15T06:06:03.401Z,99181.00
2023-03-15T06:09:07.563Z,99179.44
2023-03-15T06:12:11.356Z,99174.44
2023-03-15T06:15:14.599Z,99166.97
2023-03-15T06:18:17.764Z,99181.78
2023-03-15T06:21:23.399Z,99201.56
2023-03-15T06:24:26.584Z,99201.88
2023-03-15T06:27:29.399Z,99202.78
2023-03-15T06:30:34.907Z,99200.06
2023-03-15T06:33:38.250Z,99196.59
2023-03-15T06:36:44.090Z,99218.28
2023-03-15T06:39:48.254Z,99213.69
2023-03-15T06:42:51.230Z,99180.97
2023-03-15T06:45:56.057Z,99206.91
2023-03-15T06:48:59.715Z,99205.41
2023-03-15T06:52:04.214Z,99214.44
2023-03-15T06:55:07.646Z,99222.19
2023-03-15T06:58:10.716Z,99228.81
2023-03-15T07:01:15.769Z,99230.25
2023-03-15T07:04:18.578Z,99232.78
2023-03-15T07:07:21.481Z,99238.22
2023-03-15T07:10:25.888Z,99245.97
2023-03-15T07:13:29.040Z,99240.78
2023-03-15T07:16:31.713Z,99248.25
2023-03-15T07:19:39.211Z,99244.53
2023-03-15T07:22:45.707Z,99238.84
2023-03-15T07:25:55.081Z,99238.50
2023-03-15T07:28:58.175Z,99238.97
2023-03-15T07:32:01.677Z,99256.34
2023-03-15T07:35:04.497Z,99265.66
2023-03-15T07:38:07.423Z,99266.41
2023-03-15T07:41:11.018Z,99270.84
2023-03-15T07:44:16.054Z,99269.97
2023-03-15T07:47:18.663Z,99280.12
2023-03-15T07:50:23.795Z,99281.00
2023-03-15T07:53:26.444Z,99272.94
2023-03-15T07:56:29.676Z,99283.59
2023-03-15T07:59:32.360Z,99288.81
2023-03-15T08:02:35.737Z,99284.78
2023-03-15T08:05:38.802Z,99285.53
2023-03-15T08:08:41.753Z,99279.56
2023-03-15T08:11:45.711Z,99290.47
2023-03-15T08:14:48.512Z,99288.19
2023-03-15T08:17:51.528Z,99291.31
2023-03-15T08:21:02.109Z,99285.47
2023-03-15T08:24:05.672Z,99279.22
2023-03-15T08:27:08.306Z,99275.59
2023-03-15T08:30:14.984Z,99274.47
2023-03-15T08:33:19.739Z,99272.50
2023-03-15T08:36:22.648Z,99276.28
2023-03-15T08:39:25.323Z,99276.09
2023-03-15T08:42:28.400Z,99285.00
2023-03-15T08:45:32.989Z,99283.66
2023-03-15T08:48:36.210Z,99293.84
2023-03-15T08:51:39.114Z,99293.53
2023-03-15T08:54:42.239Z,99284.56
2023-03-15T08:57:45.154Z,99289.72
2023-03-15T09:00:51.639Z,99293.28
2023-03-15T09:03:54.854Z,99290.94
2023-03-15T09:06:57.830Z,99310.75
2023-03-15T09:10:00.773Z,99308.63
2023-03-15T09:13:04.873Z,99308.50
2023-03-15T09:16:07.911Z,99298.34
2023-03-15T09:19:10.801Z,99328.47
2023-03-15T09:22:16.738Z,99314.13
2023-03-15T09:25:26.919Z,99315.78
2023-03-15T09:28:29.652Z,99302.16
2023-03-15T09:31:32.569Z,99324.22
2023-03-15T09:34:41.674Z,99330.41
2023-03-15T09:37:45.678Z,99330.53
2023-03-15T09:40:48.494Z,99335.56
2023-03-15T09:44:20.994Z,99336.09
2023-03-15T09:47:42.318Z,99337.16
2023-03-15T09:50:47.970Z,99344.09
2023-03-15T09:53:56.502Z,99350.94
2023-03-15T09:57:06.946Z,99348.34
2023-03-15T10:00:40.859Z,99348.44
2023-03-15T10:03:46.589Z,99346.34
2023-03-15T10:06:54.471Z,99350.12
2023-03-15T10:09:59.043Z,99356.22
2023-03-15T10:13:22.116Z,99368.66
2023-03-15T10:16:50.137Z,99377.63
2023-03-15T10:19:59.116Z,99365.09
2023-03-15T10:23:19.177Z,99375.37
2023-03-15T10:26:32.937Z,99384.44
2023-03-15T10:29:36.862Z,99387.47
2023-03-15T10:32:44.620Z,99382.09
2023-03-15T10:35:48.119Z,99392.19
2023-03-15T10:38:51.503Z,99394.97
2023-03-15T10:41:54.848Z,99404.19
2023-03-15T10:44:58.938Z,99389.31
2023-03-15T10:48:02.126Z,99396.28
2023-03-15T10:51:25.422Z,99398.09
2023-03-15T10:54:28.629Z,99422.19
2023-03-15T10:57:37.176Z,99402.12
2023-03-15T11:00:53.438Z,99403.53
2023-03-15T11:04:07.311Z,99412.34
2023-03-15T11:07:13.432Z,99410.91
2023-03-15T11:10:23.371Z,99424.56
2023-03-15T11:13:28.783Z,99415.00
2023-03-15T11:16:35.543Z,99422.72
2023-03-15T11:19:42.582Z,99427.44
2023-03-15T11:22:45.292Z,99432.09
2023-03-15T11:25:48.278Z,99440.62
2023-03-15T11:28:54.944Z,99439.72
2023-03-15T11:32:01.275Z,99438.72
2023-03-15T11:35:08.750Z,99445.41
2023-03-15T11:38:17.527Z,99439.97
2023-03-15T11:41:37.270Z,99430.56
2023-03-15T11:44:51.775Z,99467.03
2023-03-15T11:47:59.603Z,99470.47
2023-03-15T11:51:03.220Z,99469.38
2023-03-15T11:54:11.670Z,99462.66
2023-03-15T11:57:30.665Z,99464.25
2023-03-15T12:00:35.579Z,99468.84
2023-03-15T12:03:38.789Z,99488.03
2023-03-15T12:06:41.546Z,99465.59
2023-03-15T12:09:52.607Z,99480.94
2023-03-15T12:13:06.080Z,99467.09
2023-03-15T12:16:12.255Z,99470.69
2023-03-15T12:19:20.968Z,99482.81
2023-03-15T12:22:25.946Z,99456.38
2023-03-15T12:25:39.438Z,99467.69
2023-03-15T12:29:00.775Z,99473.44
2023-03-15T12:32:03.245Z,99484.28
2023-03-15T12:35:15.906Z,99486.91
2023-03-15T12:38:20.863Z,99478.16
2023-03-15T12:41:46.802Z,99474.69
2023-03-15T12:44:49.421Z,99492.03
2023-03-15T12:47:52.353Z,99486.47
2023-03-15T12:51:11.081Z,99499.16
2023-03-15T12:54:16.443Z,99517.28
2023-03-15T12:57:29.870Z,99504.94
2023-03-15T13:00:35.603Z,99504.31
2023-03-15T13:03:38.969Z,99535.59
2023-03-15T13:07:00.332Z,99531.91
2023-03-15T13:10:17.219Z,99532.81
2023-03-15T13:13:55.687Z,99525.84
2023-03-15T13:17:24.569Z,99531.09
2023-03-15T13:20:42.007Z,99536.06
2023-03-15T13:23:50.502Z,99551.75
2023-03-15T13:27:08.915Z,99561.72
2023-03-15T13:30:38.937Z,99560.16
2023-03-15T13:33:42.198Z,99579.56
2023-03-15T13:36:53.983Z,99550.66
2023-03-15T13:40:01.325Z,99573.09
2023-03-15T13:43:04.115Z,99579.13
2023-03-15T13:46:07.397Z,99582.13
2023-03-15T13:49:13.421Z,99570.62
2023-03-15T13:52:16.685Z,99590.16
2023-03-15T13:55:25.034Z,99596.16
2023-03-15T13:58:29.217Z,99600.09
2023-03-15T14:01:38.058Z,99600.84
2023-03-15T14:04:41.105Z,99608.28
2023-03-15T14:07:46.787Z,99605.25
2023-03-15T14:11:01.768Z,99605.34
2023-03-15T14:14:21.931Z,99616.00
2023-03-15T14:17:30.593Z,99632.31
2023-03-15T14:20:42.742Z,99628.91
2023-03-15T14:23:49.144Z,99642.87
2023-03-15T14:26:54.941Z,99654.78
2023-03-15T14:30:00.474Z,99636.53
2023-03-15T14:33:07.546Z,99650.63
2023-03-15T14:36:32.606Z,99646.34
2023-03-15T14:39:41.771Z,99637.81
2023-03-15T14:42:45.228Z,99670.00
2023-03-15T14:45:49.066Z,99663.94
2023-03-15T14:48:53.614Z,99663.59
2023-03-15T14:52:02.628Z,99668.16
2023-03-15T14:55:05.897Z,99683.59
2023-03-15T14:58:14.703Z,99691.81
2023-03-15T15:01:28.055Z,99695.63
2023-03-15T15:04:34.078Z,99709.00
2023-03-15T15:07:37.009Z,99713.03
2023-03-15T15:10:47.056Z,99721.91
2023-03-15T15:13:50.048Z,99691.72
2023-03-15T15:16:52.820Z,99708.16
2023-03-15T15:19:55.760Z,99710.22
2023-03-15T15:22:58.420Z,99707.53
2023-03-15T15:26:06.069Z,99722.09
2023-03-15T15:29:16.692Z,99723.22
2023-03-15T15:32:19.615Z,99728.31
2023-03-15T15:35:22.392Z,99745.91
2023-03-15T15:38:38.429Z,99752.72
2023-03-15T15:41:41.668Z,99749.94
2023-03-15T15:44:45.997Z,99784.28
2023-03-15T15:47:48.818Z,99777.09
2023-03-15T15:50:52.328Z,99788.59
2023-03-15T15:53:57.801Z,99806.66
2023-03-15T15:57:01.709Z,99800.19
2023-03-15T16:00:08.330Z,99811.19
2023-03-15T16:03:18.402Z,99810.94
2023-03-15T16:06:22.340Z,99817.69
2023-03-15T16:09:26.792Z,99866.88
2023-03-15T16:12:32.449Z,99827.59
2023-03-15T16:15:35.301Z,99848.41
2023-03-15T16:18:38.512Z,99836.72
2023-03-15T16:21:44.216Z,99827.72
2023-03-15T16:24:50.913Z,99838.81
2023-03-15T16:27:55.927Z,99846.34
2023-03-15T16:30:59.546Z,99850.22
2023-03-15T16:34:02.375Z,99868.41
2023-03-15T16:37:05.806Z,99862.44
2023-03-15T16:40:35.425Z,99873.41
2023-03-15T16:43:38.643Z,99892.84
2023-03-15T16:46:42.192Z,99880.63
2023-03-15T16:49:45.926Z,99881.31
2023-03-15T16:52:52.604Z,99907.78
2023-03-15T16:55:55.773Z,99905.41
2023-03-15T16:58:58.699Z,99902.69
2023-03-15T17:02:01.884Z,99917.59
2023-03-15T17:05:05.281Z,99925.28
2023-03-15T17:08:12.852Z,99932.84
2023-03-15T17:11:18.311Z,99930.25
2023-03-15T17:14:34.600Z,99930.03
2023-03-15T17:17:37.442Z,99946.75
2023-03-15T17:20:41.590Z,99964.84
2023-03-15T17:23:45.272Z,99966.44
2023-03-15T17:26:48.618Z,99954.00
2023-03-15T17:29:51.610Z,99978.41
2023-03-15T17:32:55.308Z,99992.63
2023-03-15T17:35:58.741Z,99989.72
2023-03-15T17:39:02.864Z,99995.94
2023-03-15T17:42:05.582Z,99988.81
2023-03-15T17:45:21.031Z,99989.84
2023-03-15T17:48:24.495Z,100021.03
2023-03-15T17:51:31.074Z,100018.53
2023-03-15T17:54:34.467Z,100023.75
2023-03-15T17:57:40.444Z,100030.19
2023-03-15T18:00:48.094Z,100035.94
2023-03-15T18:03:51.788Z,100024.53
2023-03-15T18:06:55.442Z,100035.59
2023-03-15T18:09:59.900Z,100046.38
2023-03-15T18:13:04.179Z,100051.66
2023-03-15T18:16:07.431Z,100052.00
2023-03-15T18:19:10.660Z,100046.16
2023-03-15T18:22:16.642Z,100058.59
2023-03-15T18:25:25.898Z,100061.50
2023-03-15T18:28:29.077Z,100066.06
2023-03-15T18:31:32.434Z,100065.00
2023-03-15T18:34:35.786Z,100071.34
2023-03-15T18:37:40.049Z,100082.19
2023-03-15T18:40:43.910Z,100098.03
2023-03-15T18:43:51.623Z,100086.28
2023-03-15T18:46:54.796Z,100098.69
2023-03-15T18:50:04.476Z,100118.13
2023-03-15T18:53:13.729Z,100106.84
2023-03-15T18:56:25.771Z,100120.19
2023-03-15T18:59:29.098Z,100114.72
2023-03-15T19:02:32.050Z,100130.09
2023-03-15T19:05:38.166Z,100127.44
2023-03-15T19:08:42.052Z,100119.31
2023-03-15T19:11:45.303Z,100142.41
2023-03-15T19:14:48.053Z,100141.09
2023-03-15T19:18:11.163Z,100140.88
2023-03-15T19:21:14.182Z,100147.84
2023-03-15T19:24:21.532Z,100145.66
2023-03-15T19:27:24.869Z,100133.91
2023-03-15T19:30:28.758Z,100169.06
2023-03-15T19:33:31.742Z,100158.53
2023-03-15T19:36:34.812Z,100162.78
2023-03-15T19:39:37.981Z,100170.59
2023-03-15T19:42:42.271Z,100161.47
2023-03-15T19:45:45.399Z,100181.09
2023-03-15T19:48:49.231Z,100172.75
2023-03-15T19:51:52.188Z,100181.19
2023-03-15T19:54:56.853Z,100180.72
2023-03-15T19:57:59.834Z,100181.38
2023-03-15T20:01:03.436Z,100175.47
2023-03-15T20:04:06.968Z,100190.88
2023-03-15T20:07:11.267Z,100188.16
2023-03-15T20:10:14.817Z,100196.91
2023-03-15T20:13:17.873Z,100182.03
2023-03-15T20:16:21.957Z,100191.47
2023-03-15T20:19:25.213Z,100197.06
2023-03-15T20:22:36.314Z,100197.47
2023-03-15T20:25:39.290Z,100203.94
2023-03-15T20:28:44.321Z,100198.69
2023-03-15T20:31:47.378Z,100197.50
2023-03-15T20:34:57.064Z,100188.44
2023-03-15T20:38:06.704Z,100205.16
2023-03-15T20:41:09.909Z,100194.44
2023-03-15T20:44:12.884Z,100201.19
2023-03-15T20:47:16.215Z,100206.31
2023-03-15T20:50:19.159Z,100211.81
2023-03-15T20:53:23.101Z,100207.16
2023-03-15T20:56:26.092Z,100212.56
2023-03-15T20:59:29.574Z,100225.59
2023-03-15T21:02:33.157Z,100221.28
2023-03-15T21:05:37.062Z,100228.56
2023-03-15T21:08:39.833Z,100223.25
2023-03-15T21:11:43.055Z,100230.56
2023-03-15T21:14:45.639Z,100231.75
2023-03-15T21:17:49.536Z,100234.06
2023-03-15T21:21:02.244Z,100238.47
2023-03-15T21:24:06.445Z,100246.41
2023-03-15T21:27:11.411Z,100241.75
2023-03-15T21:30:15.015Z,100246.84
2023-03-15T21:33:18.086Z,100250.81
2023-03-15T21:36:27.407Z,100253.66
2023-03-15T21:39:30.698Z,100255.84
2023-03-15T21:42:34.022Z,100262.03
2023-03-15T21:45:37.181Z,100262.62
2023-03-15T21:48:42.031Z,100268.44
2023-03-15T21:51:46.083Z,100258.00
2023-03-15T21:54:49.381Z,100267.09
2023-03-15T21:57:52.079Z,100280.28
2023-03-15T22:01:04.708Z,100282.16
2023-03-15T22:04:07.818Z,100282.34
2023-03-15T22:07:11.350Z,100284.75
2023-03-15T22:10:15.616Z,100285.88
2023-03-15T22:13:18.129Z,100285.78
2023-03-15T22:16:21.142Z,100286.88
2023-03-15T22:19:23.834Z,100289.03
2023-03-15T22:22:26.835Z,100294.94
2023-03-15T22:25:29.478Z,100291.13
2023-03-15T22:28:33.200Z,100297.47
2023-03-15T22:31:38.176Z,100305.66
2023-03-15T22:34:41.257Z,100308.72
2023-03-15T22:37:44.502Z,100315.28
2023-03-15T22:40:47.574Z,100312.75
2023-03-15T22:43:52.681Z,100322.37
2023-03-15T22:46:55.584Z,100318.31
2023-03-15T22:49:59.756Z,100327.66
2023-03-15T22:53:02.857Z,100326.50
2023-03-15T22:56:06.102Z,100330.75
2023-03-15T22:59:10.066Z,100329.50
2023-03-15T23:02:13.149Z,100330.47
2023-03-15T23:05:16.460Z,100335.56
2023-03-15T23:08:19.430Z,100335.87
2023-03-15T23:11:22.315Z,100333.59
2023-03-15T23:14:24.957Z,100329.25
2023-03-15T23:17:27.861Z,100323.50
2023-03-15T23:20:31.115Z,100340.06
2023-03-15T23:23:34.119Z,100338.94
2023-03-15T23:26:37.488Z,100343.41
2023-03-15T23:29:53.644Z,100336.44
2023-03-15T23:32:59.624Z,100342.75
2023-03-15T23:36:06.069Z,100344.84
2023-03-15T23:39:08.930Z,100349.59
2023-03-15T23:42:12.502Z,100350.88
2023-03-15T23:45:15.770Z,100359.16
2023-03-15T23:48:18.636Z,100363.63
2023-03-15T23:51:22.377Z,100360.75
2023-03-15T23:54:25.734Z,100358.38
2023-03-15T23:57:28.466Z,100365.22
